Terminal Aerodrome Forecast
Issued by NWS Cleveland, OH

Home | Current Version | Previous Version | Graphics & Text | Print | Product List | Glossary On
Versions: 1 2 3 4 5 6 7 8 9 10 11 12 13 14
474
FTUS41 KCLE 201743
TAFCAK
TAF
KCAK 201743Z 2018/2118 22014G24KT P6SM SCT060
     FM202200 24015G22KT P6SM VCSH BKN050
     FM210000 24015G25KT 5SM -SHRA VCTS OVC050CB
      TEMPO 2100/2103 25020G40KT 2SM TSRA OVC020CB
     FM210400 27012KT P6SM BKN028=

USA.gov is the U.S. government's official web portal to all federal, state and local government web resources and services.